createdAt,value
2022-09-28T00:01:58.918Z,99046.31
2022-09-28T00:04:25.490Z,99092.31
2022-09-28T00:06:51.846Z,99089.16
2022-09-28T00:09:18.547Z,99088.50
2022-09-28T00:11:45.874Z,99089.56
2022-09-28T00:14:13.342Z,99105.03
2022-09-28T00:16:42.351Z,99083.19
2022-09-28T00:19:10.513Z,99075.22
2022-09-28T00:21:39.359Z,99043.47
2022-09-28T00:24:14.806Z,98863.88
2022-09-28T00:26:44.611Z,99058.66
2022-09-28T00:29:20.598Z,99023.16
2022-09-28T00:31:47.818Z,98939.44
2022-09-28T00:34:15.466Z,99026.19
2022-09-28T00:36:46.732Z,99020.00
2022-09-28T00:39:14.620Z,99060.59
2022-09-28T00:41:42.197Z,99069.25
2022-09-28T00:44:26.731Z,99061.34
2022-09-28T00:47:18.028Z,99012.66
2022-09-28T00:49:53.029Z,99060.69
2022-09-28T00:52:27.407Z,98959.41
2022-09-28T00:54:55.329Z,99009.88
2022-09-28T00:57:23.027Z,99041.34
2022-09-28T00:59:51.365Z,99025.97
2022-09-28T01:02:18.481Z,99042.50
2022-09-28T01:04:44.887Z,98839.78
2022-09-28T01:07:12.505Z,98937.16
2022-09-28T01:09:40.567Z,98993.72
2022-09-28T01:12:07.551Z,98971.19
2022-09-28T01:14:34.213Z,98943.09
2022-09-28T01:17:13.748Z,98995.69
2022-09-28T01:20:05.646Z,99042.56
2022-09-28T01:22:34.644Z,99045.78
2022-09-28T01:25:19.736Z,99045.59
2022-09-28T01:27:57.370Z,99043.16
2022-09-28T01:30:23.900Z,99032.41
2022-09-28T01:33:05.491Z,98993.00
2022-09-28T01:35:40.853Z,99040.22
2022-09-28T01:38:25.135Z,98899.38
2022-09-28T01:40:52.486Z,99013.22
2022-09-28T01:43:27.412Z,98995.22
2022-09-28T01:46:02.326Z,98920.78
2022-09-28T01:48:37.814Z,98966.13
2022-09-28T01:51:08.926Z,98960.28
2022-09-28T01:53:40.212Z,99032.19
2022-09-28T01:56:17.705Z,98863.69
2022-09-28T01:58:54.428Z,99014.91
2022-09-28T02:01:34.280Z,99030.16
2022-09-28T02:04:11.913Z,98904.50
2022-09-28T02:07:01.527Z,98871.03
2022-09-28T02:09:47.080Z,98976.47
2022-09-28T02:12:17.944Z,99028.97
2022-09-28T02:14:49.142Z,98833.09
2022-09-28T02:17:16.136Z,99018.13
2022-09-28T02:19:43.083Z,98908.63
2022-09-28T02:22:25.889Z,98931.97
2022-09-28T02:25:33.625Z,98963.50
2022-09-28T02:28:02.443Z,98963.41
2022-09-28T02:30:33.841Z,98970.94
2022-09-28T02:33:08.861Z,98989.25
2022-09-28T02:35:35.491Z,99027.09
2022-09-28T02:38:02.554Z,98841.63
2022-09-28T02:40:32.002Z,98976.31
2022-09-28T02:43:23.365Z,99021.56
2022-09-28T02:46:02.130Z,99019.69
2022-09-28T02:49:17.281Z,99016.97
2022-09-28T02:52:23.381Z,99022.09
2022-09-28T02:54:57.627Z,99015.81
2022-09-28T02:57:48.345Z,99023.66
2022-09-28T03:00:20.945Z,99023.75
2022-09-28T03:03:05.606Z,99021.16
2022-09-28T03:05:47.170Z,98955.03
2022-09-28T03:08:42.996Z,99021.06
2022-09-28T03:11:22.222Z,99021.78
2022-09-28T03:13:52.822Z,99020.13
2022-09-28T03:16:20.030Z,98952.50
2022-09-28T03:18:47.620Z,99024.31
2022-09-28T03:21:15.574Z,99029.44
2022-09-28T03:23:42.672Z,98895.47
2022-09-28T03:26:11.685Z,99032.44
2022-09-28T03:28:38.250Z,98823.53
2022-09-28T03:31:04.811Z,98983.44
2022-09-28T03:33:31.301Z,99004.44
2022-09-28T03:35:57.650Z,98853.19
2022-09-28T03:38:24.092Z,98973.94
2022-09-28T03:40:55.671Z,98920.47
2022-09-28T03:43:22.452Z,99039.88
2022-09-28T03:46:06.831Z,99025.97
2022-09-28T03:48:35.141Z,99030.38
2022-09-28T03:51:09.097Z,98912.22
2022-09-28T03:53:36.431Z,98923.41
2022-09-28T03:56:07.092Z,99010.09
2022-09-28T03:58:33.703Z,98963.31
2022-09-28T04:01:12.931Z,98914.19
2022-09-28T04:03:42.707Z,98899.59
2022-09-28T04:06:09.624Z,98974.56
2022-09-28T04:08:35.942Z,98986.88
2022-09-28T04:11:02.479Z,99015.44
2022-09-28T04:13:29.814Z,99018.06
2022-09-28T04:15:58.469Z,98999.97
2022-09-28T04:18:25.581Z,99022.00
2022-09-28T04:21:06.898Z,99026.09
2022-09-28T04:23:35.077Z,99023.47
2022-09-28T04:26:02.656Z,99020.84
2022-09-28T04:28:47.602Z,99026.31
2022-09-28T04:31:19.423Z,99029.09
2022-09-28T04:33:45.897Z,99025.75
2022-09-28T04:36:12.630Z,98937.56
2022-09-28T04:38:52.739Z,99043.41
2022-09-28T04:41:20.256Z,98994.63
2022-09-28T04:43:47.302Z,99026.28
2022-09-28T04:46:14.821Z,98931.56
2022-09-28T04:48:41.338Z,98965.78
2022-09-28T04:51:07.686Z,99025.13
2022-09-28T04:53:35.037Z,98945.88
2022-09-28T04:56:27.986Z,99032.63
2022-09-28T04:58:54.294Z,99007.63
2022-09-28T05:01:23.283Z,99029.06
2022-09-28T05:03:51.035Z,98940.03
2022-09-28T05:06:17.845Z,98947.69
2022-09-28T05:08:46.723Z,98975.16
2022-09-28T05:11:14.037Z,98958.63
2022-09-28T05:13:45.335Z,98917.88
2022-09-28T05:16:15.655Z,99017.69
2022-09-28T05:18:42.557Z,99026.69
2022-09-28T05:21:13.987Z,99028.41
2022-09-28T05:23:45.496Z,99032.16
2022-09-28T05:26:11.852Z,99033.03
2022-09-28T05:28:40.541Z,99024.66
2022-09-28T05:31:06.929Z,99032.69
2022-09-28T05:33:33.314Z,98983.16
2022-09-28T05:36:01.647Z,98983.47
2022-09-28T05:38:29.678Z,98954.63
2022-09-28T05:40:56.473Z,99012.97
2022-09-28T05:43:22.789Z,99037.13
2022-09-28T05:45:54.340Z,98947.63
2022-09-28T05:48:21.777Z,99044.53
2022-09-28T05:50:54.218Z,99046.00
2022-09-28T05:53:20.633Z,98903.53
2022-09-28T05:55:46.966Z,99045.78
2022-09-28T05:58:13.649Z,98989.25
2022-09-28T06:00:40.087Z,99038.28
2022-09-28T06:03:10.177Z,99017.88
2022-09-28T06:05:39.168Z,99046.09
2022-09-28T06:08:08.150Z,99016.88
2022-09-28T06:10:34.976Z,99056.16
2022-09-28T06:13:01.959Z,99050.81
2022-09-28T06:15:32.204Z,98944.22
2022-09-28T06:18:04.925Z,99056.28
2022-09-28T06:20:32.609Z,99050.22
2022-09-28T06:22:59.003Z,98944.13
2022-09-28T06:25:27.519Z,98941.44
2022-09-28T06:28:05.720Z,99054.94
2022-09-28T06:30:35.157Z,99004.56
2022-09-28T06:33:02.465Z,99049.06
2022-09-28T06:35:30.415Z,99065.47
2022-09-28T06:37:57.957Z,98914.94
2022-09-28T06:40:25.001Z,99011.78
2022-09-28T06:42:59.105Z,98938.75
2022-09-28T06:45:27.102Z,99040.41
2022-09-28T06:48:00.977Z,99039.16
2022-09-28T06:50:32.236Z,99088.38
2022-09-28T06:53:00.184Z,99091.63
2022-09-28T06:55:27.677Z,99092.44
2022-09-28T06:58:02.438Z,98967.47
2022-09-28T07:00:31.956Z,99071.75
2022-09-28T07:02:58.570Z,99084.41
2022-09-28T07:05:27.321Z,99095.78
2022-09-28T07:07:55.415Z,99011.66
2022-09-28T07:10:23.432Z,99039.16
2022-09-28T07:12:51.485Z,99093.84
2022-09-28T07:15:18.922Z,99061.06
2022-09-28T07:17:58.139Z,98978.53
2022-09-28T07:20:27.638Z,99096.97
2022-09-28T07:23:10.162Z,99119.41
2022-09-28T07:25:47.735Z,99139.03
2022-09-28T07:28:15.285Z,99047.38
2022-09-28T07:30:44.138Z,99123.94
2022-09-28T07:33:12.682Z,99055.69
2022-09-28T07:35:39.113Z,99076.47
2022-09-28T07:38:07.390Z,99015.75
2022-09-28T07:40:54.220Z,99032.22
2022-09-28T07:43:22.310Z,99051.25
2022-09-28T07:45:53.876Z,99055.63
2022-09-28T07:48:21.454Z,99075.50
2022-09-28T07:50:50.120Z,99037.44
2022-09-28T07:53:16.457Z,99115.91
2022-09-28T07:55:42.829Z,99144.13
2022-09-28T07:58:09.189Z,99140.09
2022-09-28T08:00:35.530Z,99005.13
2022-09-28T08:03:02.642Z,99067.09
2022-09-28T08:05:31.202Z,99026.47
2022-09-28T08:07:59.563Z,99117.50
2022-09-28T08:10:26.865Z,99102.25
2022-09-28T08:12:59.336Z,99098.09
2022-09-28T08:15:29.849Z,99139.44
2022-09-28T08:18:00.464Z,98997.41
2022-09-28T08:20:51.359Z,99119.41
2022-09-28T08:23:18.359Z,99097.72
2022-09-28T08:25:49.088Z,99166.44
2022-09-28T08:28:19.746Z,99028.56
2022-09-28T08:30:47.626Z,99058.09
2022-09-28T08:33:15.945Z,99077.28
2022-09-28T08:35:42.469Z,99139.22
2022-09-28T08:38:09.412Z,98994.66
2022-09-28T08:40:44.790Z,99136.38
2022-09-28T08:43:45.749Z,99151.41
2022-09-28T08:46:14.823Z,99179.19
2022-09-28T08:49:24.234Z,99182.16
2022-09-28T08:52:03.280Z,99196.56
2022-09-28T08:55:10.530Z,99188.69
2022-09-28T08:57:57.864Z,99185.94
2022-09-28T09:00:47.394Z,99193.69
2022-09-28T09:03:18.065Z,99197.59
2022-09-28T09:06:10.201Z,99092.44
2022-09-28T09:08:56.104Z,99193.41
2022-09-28T09:11:32.103Z,99199.47
2022-09-28T09:14:15.980Z,99237.19
2022-09-28T09:17:14.551Z,99217.44
2022-09-28T09:19:49.795Z,99084.78
2022-09-28T09:22:23.541Z,99214.44
2022-09-28T09:24:54.816Z,99181.72
2022-09-28T09:27:21.038Z,99214.47
2022-09-28T09:30:17.640Z,99213.41
2022-09-28T09:32:57.038Z,99135.44
2022-09-28T09:35:37.421Z,99221.53
2022-09-28T09:38:23.352Z,99227.94
2022-09-28T09:41:26.009Z,99225.28
2022-09-28T09:44:19.978Z,99183.13
2022-09-28T09:47:07.966Z,99185.47
2022-09-28T09:49:36.125Z,99237.94
2022-09-28T09:52:21.792Z,99243.34
2022-09-28T09:54:54.591Z,99172.78
2022-09-28T09:57:26.608Z,99228.84
2022-09-28T09:59:53.925Z,99201.47
2022-09-28T10:02:27.388Z,99190.81
2022-09-28T10:04:59.684Z,99181.69
2022-09-28T10:07:43.318Z,99061.44
2022-09-28T10:10:17.846Z,99180.88
2022-09-28T10:12:44.905Z,99216.91
2022-09-28T10:15:16.448Z,99232.84
2022-09-28T10:17:42.819Z,98991.72
2022-09-28T10:20:14.714Z,99232.72
2022-09-28T10:22:41.561Z,99235.22
2022-09-28T10:25:09.842Z,99213.38
2022-09-28T10:27:41.291Z,99230.19
2022-09-28T10:30:08.376Z,99227.13
2022-09-28T10:32:43.698Z,99234.69
2022-09-28T10:35:18.969Z,99239.06
2022-09-28T10:37:56.534Z,99238.41
2022-09-28T10:40:40.972Z,99242.50
2022-09-28T10:43:30.025Z,99238.19
2022-09-28T10:46:06.258Z,99191.97
2022-09-28T10:48:52.346Z,99244.31
2022-09-28T10:51:18.954Z,99245.72
2022-09-28T10:54:00.442Z,99234.31
2022-09-28T10:56:30.033Z,99215.13
2022-09-28T10:58:56.414Z,99243.59
2022-09-28T11:01:28.602Z,99166.00
2022-09-28T11:04:04.080Z,99171.22
2022-09-28T11:06:38.884Z,99226.31
2022-09-28T11:09:29.788Z,99144.03
2022-09-28T11:11:59.105Z,99022.03
2022-09-28T11:14:42.127Z,99245.50
2022-09-28T11:17:40.497Z,99255.69
2022-09-28T11:20:27.886Z,99250.84
2022-09-28T11:22:57.187Z,99202.22
2022-09-28T11:25:26.228Z,99245.41
2022-09-28T11:27:52.566Z,99249.72
2022-09-28T11:30:27.124Z,99248.06
2022-09-28T11:33:10.505Z,99146.84
2022-09-28T11:36:05.672Z,99254.31
2022-09-28T11:38:55.843Z,99247.50
2022-09-28T11:41:48.359Z,99181.97
2022-09-28T11:44:20.856Z,99253.59
2022-09-28T11:47:11.818Z,99258.59
2022-09-28T11:49:44.949Z,99207.31
2022-09-28T11:52:32.486Z,99233.38
2022-09-28T11:55:14.322Z,99232.03
2022-09-28T11:57:45.115Z,99265.19
2022-09-28T12:00:19.587Z,99256.34
2022-09-28T12:03:00.078Z,99247.50
2022-09-28T12:05:41.113Z,99274.31
2022-09-28T12:08:14.865Z,99262.09
2022-09-28T12:10:58.056Z,99259.72
2022-09-28T12:13:28.632Z,99180.97
2022-09-28T12:16:27.239Z,99269.56
2022-09-28T12:18:49.125Z,99176.38
2022-09-28T12:21:24.454Z,99260.13
2022-09-28T12:23:56.700Z,99265.56
2022-09-28T12:26:45.889Z,99258.06
2022-09-28T12:29:18.636Z,99262.34
2022-09-28T12:31:57.792Z,99261.97
2022-09-28T12:34:24.290Z,99261.50
2022-09-28T12:37:27.660Z,99279.59
2022-09-28T12:40:12.802Z,99146.00
2022-09-28T12:43:06.205Z,99283.34
2022-09-28T12:46:17.962Z,99165.84
2022-09-28T12:49:33.170Z,99176.69
2022-09-28T12:51:50.074Z,99267.34
2022-09-28T12:54:38.874Z,99144.47
2022-09-28T12:57:36.647Z,99274.75
2022-09-28T13:00:09.963Z,99277.56
2022-09-28T13:02:46.771Z,99283.09
2022-09-28T13:05:28.407Z,99261.81
2022-09-28T13:08:40.677Z,99246.81
2022-09-28T13:11:16.106Z,99281.88
2022-09-28T13:14:08.074Z,99281.41
2022-09-28T13:16:45.896Z,99297.00
2022-09-28T13:19:20.327Z,99284.25
2022-09-28T13:22:21.977Z,99245.59
2022-09-28T13:24:49.688Z,99187.72
2022-09-28T13:27:36.790Z,99257.09
2022-09-28T13:30:08.837Z,99192.03
2022-09-28T13:32:37.389Z,99245.16
2022-09-28T13:35:03.888Z,99165.66
2022-09-28T13:37:30.245Z,99102.09
2022-09-28T13:40:05.977Z,99266.00
2022-09-28T13:42:44.769Z,99247.81
2022-09-28T13:45:20.235Z,99152.28
2022-09-28T13:48:05.623Z,99238.75
2022-09-28T13:50:38.544Z,99239.00
2022-09-28T13:53:23.177Z,99226.72
2022-09-28T13:55:58.639Z,99246.88
2022-09-28T13:58:41.788Z,99242.31
2022-09-28T14:01:16.245Z,99212.31
2022-09-28T14:03:52.610Z,99082.19
2022-09-28T14:06:29.417Z,99261.97
2022-09-28T14:08:59.000Z,99256.28
2022-09-28T14:11:40.537Z,99268.75
2022-09-28T14:14:13.990Z,99267.34
2022-09-28T14:16:42.171Z,99243.88
2022-09-28T14:19:16.175Z,99200.00
2022-09-28T14:22:29.357Z,99257.50
2022-09-28T14:25:12.266Z,99259.59
2022-09-28T14:27:53.629Z,99261.09
2022-09-28T14:30:26.289Z,99159.84
2022-09-28T14:32:54.066Z,99272.88
2022-09-28T14:35:40.661Z,99190.38
2022-09-28T14:38:35.421Z,99102.00
2022-09-28T14:41:15.076Z,99239.06
2022-09-28T14:43:44.448Z,99299.75
2022-09-28T14:46:11.248Z,99302.00
2022-09-28T14:49:03.863Z,99304.16
2022-09-28T14:51:30.222Z,99308.53
2022-09-28T14:54:01.583Z,99308.72
2022-09-28T14:56:32.812Z,99287.06
2022-09-28T14:59:00.266Z,99254.09
2022-09-28T15:01:26.682Z,99304.31
2022-09-28T15:04:01.416Z,99209.03
2022-09-28T15:06:47.944Z,99303.91
2022-09-28T15:09:35.067Z,99128.97
2022-09-28T15:12:13.780Z,99302.66
2022-09-28T15:15:18.200Z,99239.72
2022-09-28T15:17:52.802Z,99306.13
2022-09-28T15:20:29.872Z,99300.69
2022-09-28T15:22:58.500Z,99250.53
2022-09-28T15:25:30.118Z,98914.38
2022-09-28T15:28:04.661Z,99194.81
2022-09-28T15:30:33.165Z,99235.69
2022-09-28T15:33:20.154Z,99198.88
2022-09-28T15:35:58.058Z,99169.53
2022-09-28T15:38:24.826Z,99292.41
2022-09-28T15:40:51.531Z,99214.69
2022-09-28T15:43:32.658Z,99214.31
2022-09-28T15:46:13.802Z,99343.75
2022-09-28T15:48:55.124Z,99345.38
2022-09-28T15:51:23.665Z,99358.66
2022-09-28T15:54:09.291Z,99357.19
2022-09-28T15:57:02.774Z,99130.72
2022-09-28T15:59:35.219Z,99167.09
2022-09-28T16:02:25.886Z,99317.53
2022-09-28T16:04:56.730Z,99252.00
2022-09-28T16:07:28.475Z,99192.84
2022-09-28T16:10:13.143Z,99378.47
2022-09-28T16:12:47.996Z,99330.28
2022-09-28T16:15:31.973Z,99253.81
2022-09-28T16:18:02.516Z,99382.38
2022-09-28T16:20:40.861Z,99352.97
2022-09-28T16:23:21.813Z,99390.47
2022-09-28T16:25:57.167Z,99342.09
2022-09-28T16:28:49.116Z,99327.06
2022-09-28T16:31:15.472Z,99405.06
2022-09-28T16:33:52.114Z,99325.13
2022-09-28T16:36:18.484Z,99382.47
2022-09-28T16:38:45.997Z,99352.94
2022-09-28T16:41:14.197Z,99056.75
2022-09-28T16:43:40.768Z,99347.50
2022-09-28T16:46:10.379Z,99306.84
2022-09-28T16:48:40.689Z,99224.25
2022-09-28T16:51:07.025Z,99425.06
2022-09-28T16:53:52.038Z,99314.19
2022-09-28T16:56:18.618Z,99367.06
2022-09-28T16:58:47.921Z,99412.88
2022-09-28T17:01:14.816Z,99327.44
2022-09-28T17:03:46.773Z,99415.13
2022-09-28T17:06:14.234Z,99343.31
2022-09-28T17:08:41.541Z,99232.13
2022-09-28T17:11:17.725Z,99431.59
2022-09-28T17:13:47.267Z,99431.81
2022-09-28T17:16:32.653Z,99379.63
2022-09-28T17:19:23.203Z,99311.44
2022-09-28T17:21:51.022Z,99417.81
2022-09-28T17:24:18.339Z,99268.25
2022-09-28T17:26:46.948Z,99419.31
2022-09-28T17:29:14.650Z,99298.50
2022-09-28T17:31:43.268Z,99290.44
2022-09-28T17:34:11.417Z,99422.53
2022-09-28T17:36:38.508Z,99293.94
2022-09-28T17:39:06.170Z,99370.56
2022-09-28T17:41:34.169Z,99372.22
2022-09-28T17:44:02.818Z,99380.50
2022-09-28T17:46:32.698Z,99429.09
2022-09-28T17:49:00.863Z,99440.94
2022-09-28T17:51:32.557Z,99316.25
2022-09-28T17:54:00.916Z,99429.16
2022-09-28T17:56:32.493Z,99338.75
2022-09-28T17:59:04.885Z,99376.25
2022-09-28T18:01:34.319Z,99319.16
2022-09-28T18:04:03.544Z,99441.59
2022-09-28T18:06:30.019Z,99388.38
2022-09-28T18:08:56.472Z,99386.88
2022-09-28T18:11:23.036Z,99338.88
2022-09-28T18:13:49.594Z,99346.47
2022-09-28T18:16:16.710Z,99445.72
2022-09-28T18:18:43.150Z,99313.22
2022-09-28T18:21:09.517Z,99378.84
2022-09-28T18:23:37.282Z,99464.38
2022-09-28T18:26:04.392Z,99306.31
2022-09-28T18:28:31.120Z,99422.88
2022-09-28T18:30:57.533Z,99366.50
2022-09-28T18:33:23.907Z,99449.19
2022-09-28T18:35:54.404Z,99458.31
2022-09-28T18:38:20.764Z,99437.66
2022-09-28T18:40:48.086Z,99354.13
2022-09-28T18:43:15.240Z,99356.59
2022-09-28T18:45:41.940Z,99336.75
2022-09-28T18:48:09.455Z,99253.47
2022-09-28T18:50:36.018Z,99454.72
2022-09-28T18:53:11.855Z,99429.31
2022-09-28T18:55:42.640Z,99346.25
2022-09-28T18:58:10.582Z,99481.47
2022-09-28T19:00:40.641Z,99479.13
2022-09-28T19:03:08.023Z,99373.09
2022-09-28T19:05:34.999Z,99471.53
2022-09-28T19:08:01.889Z,99179.41
2022-09-28T19:10:28.470Z,99354.94
2022-09-28T19:12:54.829Z,99306.03
2022-09-28T19:15:22.642Z,99308.69
2022-09-28T19:17:50.166Z,99354.03
2022-09-28T19:20:16.834Z,99259.31
2022-09-28T19:22:44.124Z,99368.34
2022-09-28T19:25:10.984Z,99447.09
2022-09-28T19:27:37.885Z,99449.00
2022-09-28T19:30:04.664Z,99299.16
2022-09-28T19:32:31.198Z,99488.03
2022-09-28T19:34:57.876Z,99316.34
2022-09-28T19:37:24.648Z,99468.69
2022-09-28T19:39:50.974Z,99422.25
2022-09-28T19:42:17.293Z,99310.22
2022-09-28T19:44:43.849Z,99478.78
2022-09-28T19:47:11.572Z,99447.06
2022-09-28T19:49:40.038Z,99434.41
2022-09-28T19:52:13.962Z,99318.25
2022-09-28T19:55:01.116Z,99437.00
2022-09-28T19:57:31.381Z,99274.69
2022-09-28T20:00:02.033Z,99499.69
2022-09-28T20:02:29.245Z,99500.09
2022-09-28T20:04:55.693Z,99494.84
2022-09-28T20:07:22.049Z,99302.19
2022-09-28T20:09:48.347Z,99453.81
2022-09-28T20:12:14.666Z,99458.53
2022-09-28T20:14:40.981Z,99394.09
2022-09-28T20:17:07.544Z,99385.88
2022-09-28T20:19:34.784Z,99387.75
2022-09-28T20:22:02.738Z,99497.72
2022-09-28T20:24:29.636Z,99449.94
2022-09-28T20:26:56.187Z,99462.19
2022-09-28T20:29:24.150Z,99306.41
2022-09-28T20:31:51.648Z,99461.06
2022-09-28T20:34:18.003Z,99458.63
2022-09-28T20:36:44.607Z,99498.75
2022-09-28T20:39:11.780Z,99451.00
2022-09-28T20:41:38.206Z,99317.34
2022-09-28T20:44:15.061Z,99499.22
2022-09-28T20:46:43.613Z,99490.63
2022-09-28T20:49:10.088Z,99352.47
2022-09-28T20:51:36.413Z,99498.75
2022-09-28T20:54:02.789Z,99409.28
2022-09-28T20:56:39.982Z,99519.19
2022-09-28T20:59:12.783Z,99274.38
2022-09-28T21:01:39.531Z,99494.09
2022-09-28T21:04:07.784Z,99444.25
2022-09-28T21:06:39.465Z,99499.78
2022-09-28T21:09:07.887Z,99501.47
2022-09-28T21:11:35.474Z,99500.53
2022-09-28T21:14:04.331Z,99282.00
2022-09-28T21:16:33.094Z,99340.31
2022-09-28T21:18:59.449Z,99482.13
2022-09-28T21:21:26.573Z,99452.78
2022-09-28T21:23:54.104Z,99461.59
2022-09-28T21:26:25.377Z,99498.75
2022-09-28T21:28:59.641Z,99506.94
2022-09-28T21:31:29.481Z,99382.16
2022-09-28T21:33:56.986Z,99492.69
2022-09-28T21:36:23.406Z,99408.44
2022-09-28T21:38:49.726Z,99492.22
2022-09-28T21:41:16.321Z,99395.06
2022-09-28T21:43:42.711Z,99422.56
2022-09-28T21:46:10.014Z,99352.47
2022-09-28T21:48:36.366Z,99270.75
2022-09-28T21:51:05.273Z,99499.25
2022-09-28T21:53:34.242Z,99257.09
2022-09-28T21:56:01.846Z,99494.63
2022-09-28T21:58:30.849Z,99308.84
2022-09-28T22:01:04.100Z,99500.22
2022-09-28T22:03:31.959Z,99380.63
2022-09-28T22:05:58.538Z,99461.97
2022-09-28T22:08:26.080Z,99445.63
2022-09-28T22:11:02.063Z,99493.63
2022-09-28T22:13:30.283Z,99492.72
2022-09-28T22:16:00.228Z,99366.75
2022-09-28T22:18:28.444Z,99447.28
2022-09-28T22:21:18.936Z,99379.78
2022-09-28T22:23:45.414Z,99327.03
2022-09-28T22:26:17.673Z,99454.91
2022-09-28T22:28:49.418Z,99329.38
2022-09-28T22:31:17.976Z,99499.97
2022-09-28T22:33:44.425Z,99394.63
2022-09-28T22:36:11.154Z,99452.28
2022-09-28T22:38:37.596Z,99483.00
2022-09-28T22:41:04.139Z,99431.22
2022-09-28T22:43:31.049Z,99494.50
2022-09-28T22:46:09.164Z,99496.06
2022-09-28T22:48:36.039Z,99307.66
2022-09-28T22:51:03.712Z,99384.19
2022-09-28T22:53:30.276Z,99383.38
2022-09-28T22:55:57.960Z,99366.31
2022-09-28T22:58:24.378Z,99440.56
2022-09-28T23:00:50.858Z,99427.78
2022-09-28T23:03:17.833Z,99420.41
2022-09-28T23:05:56.884Z,99503.25
2022-09-28T23:08:24.291Z,99408.84
2022-09-28T23:10:51.476Z,99415.94
2022-09-28T23:13:18.399Z,99498.22
2022-09-28T23:16:01.337Z,99454.06
2022-09-28T23:18:29.212Z,99499.44
2022-09-28T23:20:57.051Z,99488.69
2022-09-28T23:23:23.765Z,99358.09
2022-09-28T23:25:51.328Z,99295.56
2022-09-28T23:28:18.822Z,99341.63
2022-09-28T23:30:45.349Z,99405.97
2022-09-28T23:33:19.124Z,99474.47
2022-09-28T23:35:46.134Z,99490.59
2022-09-28T23:38:20.500Z,99488.16
2022-09-28T23:40:47.437Z,99370.06
2022-09-28T23:43:14.726Z,99385.91
2022-09-28T23:45:44.435Z,99495.19
2022-09-28T23:48:11.216Z,99358.59
2022-09-28T23:50:37.576Z,99505.97
2022-09-28T23:53:04.022Z,99369.94
2022-09-28T23:55:30.353Z,99505.41
2022-09-28T23:57:58.033Z,99300.31
